sensor_id;sensor_type;location;lat;lon;timestamp;P1;durP1;ratioP1;P2;durP2;ratioP2
10884;SDS011;5495;53.252;10.390;2022-10-16T00:02:45;7.90;;;3.57;;
10884;SDS011;5495;53.252;10.390;2022-10-16T00:05:19;8.20;;;3.83;;
10884;SDS011;5495;53.252;10.390;2022-10-16T00:07:51;5.70;;;4.00;;
10884;SDS011;5495;53.252;10.390;2022-10-16T00:13:15;8.03;;;3.47;;
10884;SDS011;5495;53.252;10.390;2022-10-16T00:15:54;10.47;;;3.87;;
10884;SDS011;5495;53.252;10.390;2022-10-16T00:18:31;6.80;;;3.50;;
10884;SDS011;5495;53.252;10.390;2022-10-16T00:21:08;8.47;;;3.87;;
10884;SDS011;5495;53.252;10.390;2022-10-16T00:23:40;7.03;;;3.73;;
10884;SDS011;5495;53.252;10.390;2022-10-16T00:26:16;5.83;;;4.10;;
10884;SDS011;5495;53.252;10.390;2022-10-16T00:28:53;6.90;;;3.13;;
10884;SDS011;5495;53.252;10.390;2022-10-16T00:31:27;8.83;;;3.87;;
10884;SDS011;5495;53.252;10.390;2022-10-16T00:33:57;5.53;;;4.00;;
10884;SDS011;5495;53.252;10.390;2022-10-16T00:36:28;4.90;;;3.73;;
10884;SDS011;5495;53.252;10.390;2022-10-16T00:39:02;6.10;;;3.47;;
10884;SDS011;5495;53.252;10.390;2022-10-16T00:41:37;4.40;;;3.90;;
10884;SDS011;5495;53.252;10.390;2022-10-16T00:47:09;9.30;;;3.60;;
10884;SDS011;5495;53.252;10.390;2022-10-16T00:49:39;10.07;;;3.27;;
10884;SDS011;5495;53.252;10.390;2022-10-16T00:52:10;9.93;;;3.93;;
10884;SDS011;5495;53.252;10.390;2022-10-16T00:54:40;3.70;;;3.40;;
10884;SDS011;5495;53.252;10.390;2022-10-16T00:57:07;4.77;;;3.17;;
10884;SDS011;5495;53.252;10.390;2022-10-16T00:59:36;8.00;;;3.83;;
10884;SDS011;5495;53.252;10.390;2022-10-16T01:02:21;4.60;;;3.57;;
10884;SDS011;5495;53.252;10.390;2022-10-16T01:04:50;3.80;;;3.33;;
10884;SDS011;5495;53.252;10.390;2022-10-16T01:07:32;7.33;;;3.70;;
10884;SDS011;5495;53.252;10.390;2022-10-16T01:10:10;6.00;;;3.10;;
10884;SDS011;5495;53.252;10.390;2022-10-16T01:12:52;5.47;;;3.33;;
10884;SDS011;5495;53.252;10.390;2022-10-16T01:15:26;6.13;;;3.20;;
10884;SDS011;5495;53.252;10.390;2022-10-16T01:18:00;9.80;;;3.10;;
10884;SDS011;5495;53.252;10.390;2022-10-16T01:20:33;4.23;;;2.80;;
10884;SDS011;5495;53.252;10.390;2022-10-16T01:23:07;10.67;;;2.80;;
10884;SDS011;5495;53.252;10.390;2022-10-16T01:25:54;6.50;;;3.13;;
10884;SDS011;5495;53.252;10.390;2022-10-16T01:28:32;9.23;;;2.43;;
10884;SDS011;5495;53.252;10.390;2022-10-16T01:31:04;10.93;;;2.67;;
10884;SDS011;5495;53.252;10.390;2022-10-16T01:33:37;7.80;;;2.60;;
10884;SDS011;5495;53.252;10.390;2022-10-16T01:36:10;5.27;;;2.60;;
10884;SDS011;5495;53.252;10.390;2022-10-16T01:38:41;10.10;;;2.40;;
10884;SDS011;5495;53.252;10.390;2022-10-16T01:41:14;8.00;;;2.30;;
10884;SDS011;5495;53.252;10.390;2022-10-16T01:43:50;2.87;;;2.30;;
10884;SDS011;5495;53.252;10.390;2022-10-16T01:46:24;8.57;;;2.37;;
10884;SDS011;5495;53.252;10.390;2022-10-16T01:48:53;14.13;;;2.03;;
10884;SDS011;5495;53.252;10.390;2022-10-16T01:51:22;6.53;;;2.23;;
10884;SDS011;5495;53.252;10.390;2022-10-16T01:53:58;8.40;;;2.00;;
10884;SDS011;5495;53.252;10.390;2022-10-16T01:56:27;6.27;;;2.13;;
10884;SDS011;5495;53.252;10.390;2022-10-16T01:59:01;8.03;;;1.87;;
10884;SDS011;5495;53.252;10.390;2022-10-16T02:01:35;6.67;;;2.10;;
10884;SDS011;5495;53.252;10.390;2022-10-16T02:04:10;3.77;;;2.03;;
10884;SDS011;5495;53.252;10.390;2022-10-16T02:06:42;6.77;;;2.30;;
10884;SDS011;5495;53.252;10.390;2022-10-16T02:09:10;6.73;;;1.97;;
10884;SDS011;5495;53.252;10.390;2022-10-16T02:11:50;6.63;;;1.67;;
10884;SDS011;5495;53.252;10.390;2022-10-16T02:14:25;10.40;;;2.30;;
10884;SDS011;5495;53.252;10.390;2022-10-16T02:16:55;8.67;;;1.97;;
10884;SDS011;5495;53.252;10.390;2022-10-16T02:19:22;5.43;;;1.50;;
10884;SDS011;5495;53.252;10.390;2022-10-16T02:21:56;4.00;;;1.80;;
10884;SDS011;5495;53.252;10.390;2022-10-16T02:24:31;4.27;;;1.80;;
10884;SDS011;5495;53.252;10.390;2022-10-16T02:27:09;2.97;;;1.50;;
10884;SDS011;5495;53.252;10.390;2022-10-16T02:29:42;3.07;;;1.60;;
10884;SDS011;5495;53.252;10.390;2022-10-16T02:32:24;3.27;;;1.20;;
10884;SDS011;5495;53.252;10.390;2022-10-16T02:35:15;3.30;;;1.40;;
10884;SDS011;5495;53.252;10.390;2022-10-16T02:37:47;10.67;;;1.77;;
10884;SDS011;5495;53.252;10.390;2022-10-16T02:40:24;3.10;;;1.70;;
10884;SDS011;5495;53.252;10.390;2022-10-16T02:42:54;3.50;;;1.33;;
10884;SDS011;5495;53.252;10.390;2022-10-16T02:45:25;6.57;;;1.70;;
10884;SDS011;5495;53.252;10.390;2022-10-16T02:47:55;7.53;;;1.97;;
10884;SDS011;5495;53.252;10.390;2022-10-16T02:50:31;3.00;;;1.43;;
10884;SDS011;5495;53.252;10.390;2022-10-16T02:53:02;4.83;;;1.47;;
10884;SDS011;5495;53.252;10.390;2022-10-16T02:55:54;4.90;;;1.27;;
10884;SDS011;5495;53.252;10.390;2022-10-16T02:58:25;3.33;;;1.40;;
10884;SDS011;5495;53.252;10.390;2022-10-16T03:00:54;3.17;;;1.50;;
10884;SDS011;5495;53.252;10.390;2022-10-16T03:03:35;6.60;;;1.73;;
10884;SDS011;5495;53.252;10.390;2022-10-16T03:06:04;5.13;;;1.40;;
10884;SDS011;5495;53.252;10.390;2022-10-16T03:08:34;4.47;;;1.30;;
10884;SDS011;5495;53.252;10.390;2022-10-16T03:11:02;5.67;;;1.50;;
10884;SDS011;5495;53.252;10.390;2022-10-16T03:13:39;4.47;;;1.17;;
10884;SDS011;5495;53.252;10.390;2022-10-16T03:16:28;2.80;;;1.40;;
10884;SDS011;5495;53.252;10.390;2022-10-16T03:19:12;5.13;;;1.40;;
10884;SDS011;5495;53.252;10.390;2022-10-16T03:24:31;5.10;;;1.70;;
10884;SDS011;5495;53.252;10.390;2022-10-16T03:27:05;3.20;;;1.23;;
10884;SDS011;5495;53.252;10.390;2022-10-16T03:29:32;3.80;;;1.77;;
10884;SDS011;5495;53.252;10.390;2022-10-16T03:32:02;4.50;;;1.40;;
10884;SDS011;5495;53.252;10.390;2022-10-16T03:34:32;8.87;;;1.80;;
10884;SDS011;5495;53.252;10.390;2022-10-16T03:37:07;4.67;;;1.20;;
10884;SDS011;5495;53.252;10.390;2022-10-16T03:39:49;7.33;;;1.70;;
10884;SDS011;5495;53.252;10.390;2022-10-16T03:42:20;5.67;;;1.50;;
10884;SDS011;5495;53.252;10.390;2022-10-16T03:44:50;6.53;;;1.50;;
10884;SDS011;5495;53.252;10.390;2022-10-16T03:47:35;3.93;;;1.60;;
10884;SDS011;5495;53.252;10.390;2022-10-16T03:50:09;7.40;;;1.40;;
10884;SDS011;5495;53.252;10.390;2022-10-16T03:52:56;4.67;;;1.57;;
10884;SDS011;5495;53.252;10.390;2022-10-16T03:55:29;3.93;;;1.50;;
10884;SDS011;5495;53.252;10.390;2022-10-16T03:57:57;8.17;;;1.60;;
10884;SDS011;5495;53.252;10.390;2022-10-16T04:00:25;2.53;;;1.43;;
10884;SDS011;5495;53.252;10.390;2022-10-16T04:05:54;3.63;;;1.33;;
10884;SDS011;5495;53.252;10.390;2022-10-16T04:08:25;3.87;;;1.70;;
10884;SDS011;5495;53.252;10.390;2022-10-16T04:10:53;11.00;;;1.60;;
10884;SDS011;5495;53.252;10.390;2022-10-16T04:13:26;6.90;;;1.70;;
10884;SDS011;5495;53.252;10.390;2022-10-16T04:16:09;3.00;;;1.30;;
10884;SDS011;5495;53.252;10.390;2022-10-16T04:19:20;5.30;;;1.40;;
10884;SDS011;5495;53.252;10.390;2022-10-16T04:25:29;6.00;;;1.50;;
10884;SDS011;5495;53.252;10.390;2022-10-16T04:28:12;7.13;;;1.30;;
10884;SDS011;5495;53.252;10.390;2022-10-16T04:30:43;9.20;;;1.70;;
10884;SDS011;5495;53.252;10.390;2022-10-16T04:33:11;6.90;;;1.80;;
10884;SDS011;5495;53.252;10.390;2022-10-16T04:35:45;3.20;;;1.30;;
10884;SDS011;5495;53.252;10.390;2022-10-16T04:38:29;2.90;;;1.33;;
10884;SDS011;5495;53.252;10.390;2022-10-16T04:41:14;5.63;;;1.47;;
10884;SDS011;5495;53.252;10.390;2022-10-16T04:43:56;5.43;;;1.90;;
10884;SDS011;5495;53.252;10.390;2022-10-16T04:46:24;5.97;;;1.60;;
10884;SDS011;5495;53.252;10.390;2022-10-16T04:49:01;5.10;;;1.77;;
10884;SDS011;5495;53.252;10.390;2022-10-16T04:51:46;3.67;;;1.30;;
10884;SDS011;5495;53.252;10.390;2022-10-16T04:54:27;8.40;;;1.77;;
10884;SDS011;5495;53.252;10.390;2022-10-16T04:57:04;5.17;;;1.60;;
10884;SDS011;5495;53.252;10.390;2022-10-16T04:59:40;2.83;;;1.50;;
10884;SDS011;5495;53.252;10.390;2022-10-16T05:02:16;2.00;;;1.70;;
10884;SDS011;5495;53.252;10.390;2022-10-16T05:04:44;3.17;;;1.83;;
10884;SDS011;5495;53.252;10.390;2022-10-16T05:07:23;6.63;;;1.80;;
10884;SDS011;5495;53.252;10.390;2022-10-16T05:09:58;3.73;;;1.77;;
10884;SDS011;5495;53.252;10.390;2022-10-16T05:15:47;7.43;;;1.87;;
10884;SDS011;5495;53.252;10.390;2022-10-16T05:21:28;5.67;;;1.57;;
10884;SDS011;5495;53.252;10.390;2022-10-16T05:24:22;8.07;;;1.60;;
10884;SDS011;5495;53.252;10.390;2022-10-16T05:27:06;5.37;;;1.77;;
10884;SDS011;5495;53.252;10.390;2022-10-16T05:32:57;9.10;;;1.63;;
10884;SDS011;5495;53.252;10.390;2022-10-16T05:35:37;4.90;;;1.50;;
10884;SDS011;5495;53.252;10.390;2022-10-16T05:38:09;5.67;;;1.53;;
10884;SDS011;5495;53.252;10.390;2022-10-16T05:41:00;6.03;;;2.07;;
10884;SDS011;5495;53.252;10.390;2022-10-16T05:43:40;5.20;;;2.00;;
10884;SDS011;5495;53.252;10.390;2022-10-16T05:49:40;12.33;;;2.00;;
10884;SDS011;5495;53.252;10.390;2022-10-16T05:52:32;4.93;;;1.60;;
10884;SDS011;5495;53.252;10.390;2022-10-16T05:55:27;9.90;;;1.83;;
10884;SDS011;5495;53.252;10.390;2022-10-16T05:58:27;4.73;;;1.63;;
10884;SDS011;5495;53.252;10.390;2022-10-16T06:04:31;6.90;;;2.17;;
10884;SDS011;5495;53.252;10.390;2022-10-16T06:10:26;7.33;;;1.63;;
10884;SDS011;5495;53.252;10.390;2022-10-16T06:17:05;3.53;;;1.70;;
10884;SDS011;5495;53.252;10.390;2022-10-16T06:19:57;7.10;;;1.90;;
10884;SDS011;5495;53.252;10.390;2022-10-16T06:22:33;5.47;;;1.80;;
10884;SDS011;5495;53.252;10.390;2022-10-16T06:25:23;3.57;;;1.70;;
10884;SDS011;5495;53.252;10.390;2022-10-16T06:33:56;9.37;;;2.03;;
10884;SDS011;5495;53.252;10.390;2022-10-16T06:36:39;7.30;;;1.97;;
10884;SDS011;5495;53.252;10.390;2022-10-16T06:39:08;6.10;;;1.80;;
10884;SDS011;5495;53.252;10.390;2022-10-16T06:41:56;7.03;;;1.67;;
10884;SDS011;5495;53.252;10.390;2022-10-16T06:44:24;7.43;;;2.23;;
10884;SDS011;5495;53.252;10.390;2022-10-16T06:47:01;4.53;;;1.87;;
10884;SDS011;5495;53.252;10.390;2022-10-16T06:49:30;5.70;;;1.90;;
10884;SDS011;5495;53.252;10.390;2022-10-16T06:52:20;7.57;;;1.80;;
10884;SDS011;5495;53.252;10.390;2022-10-16T06:56:22;5.30;;;2.00;;
10884;SDS011;5495;53.252;10.390;2022-10-16T06:58:21;2.37;;;1.60;;
10884;SDS011;5495;53.252;10.390;2022-10-16T07:01:24;5.10;;;1.90;;
10884;SDS011;5495;53.252;10.390;2022-10-16T07:04:14;3.10;;;1.90;;
10884;SDS011;5495;53.252;10.390;2022-10-16T07:06:44;5.23;;;1.80;;
10884;SDS011;5495;53.252;10.390;2022-10-16T07:09:19;5.00;;;1.73;;
10884;SDS011;5495;53.252;10.390;2022-10-16T07:12:03;7.27;;;2.20;;
10884;SDS011;5495;53.252;10.390;2022-10-16T07:14:31;2.87;;;1.70;;
10884;SDS011;5495;53.252;10.390;2022-10-16T07:17:13;7.83;;;2.00;;
10884;SDS011;5495;53.252;10.390;2022-10-16T07:20:27;7.13;;;2.00;;
10884;SDS011;5495;53.252;10.390;2022-10-16T07:22:59;9.13;;;2.37;;
10884;SDS011;5495;53.252;10.390;2022-10-16T07:26:17;4.90;;;1.70;;
10884;SDS011;5495;53.252;10.390;2022-10-16T07:29:14;7.23;;;2.53;;
10884;SDS011;5495;53.252;10.390;2022-10-16T07:31:47;4.43;;;2.17;;
10884;SDS011;5495;53.252;10.390;2022-10-16T07:34:38;5.70;;;2.10;;
10884;SDS011;5495;53.252;10.390;2022-10-16T07:37:15;4.67;;;2.30;;
10884;SDS011;5495;53.252;10.390;2022-10-16T07:42:59;2.73;;;1.90;;
10884;SDS011;5495;53.252;10.390;2022-10-16T07:45:46;6.00;;;2.20;;
10884;SDS011;5495;53.252;10.390;2022-10-16T07:51:03;3.90;;;1.97;;
10884;SDS011;5495;53.252;10.390;2022-10-16T07:53:46;2.73;;;1.73;;
10884;SDS011;5495;53.252;10.390;2022-10-16T07:56:16;2.63;;;1.67;;
10884;SDS011;5495;53.252;10.390;2022-10-16T07:59:00;3.10;;;1.63;;
10884;SDS011;5495;53.252;10.390;2022-10-16T08:01:43;3.67;;;1.53;;
10884;SDS011;5495;53.252;10.390;2022-10-16T08:04:11;10.10;;;1.50;;
10884;SDS011;5495;53.252;10.390;2022-10-16T08:06:55;4.03;;;1.80;;
10884;SDS011;5495;53.252;10.390;2022-10-16T08:09:26;2.90;;;1.80;;
10884;SDS011;5495;53.252;10.390;2022-10-16T08:12:11;3.30;;;1.60;;
10884;SDS011;5495;53.252;10.390;2022-10-16T08:18:48;5.77;;;1.90;;
10884;SDS011;5495;53.252;10.390;2022-10-16T08:21:38;2.27;;;1.50;;
10884;SDS011;5495;53.252;10.390;2022-10-16T08:24:24;2.37;;;1.70;;
10884;SDS011;5495;53.252;10.390;2022-10-16T08:27:10;4.60;;;1.53;;
10884;SDS011;5495;53.252;10.390;2022-10-16T08:29:50;3.90;;;1.57;;
10884;SDS011;5495;53.252;10.390;2022-10-16T08:32:25;3.50;;;1.77;;
10884;SDS011;5495;53.252;10.390;2022-10-16T08:34:57;4.17;;;1.40;;
10884;SDS011;5495;53.252;10.390;2022-10-16T08:37:33;5.03;;;1.70;;
10884;SDS011;5495;53.252;10.390;2022-10-16T08:40:07;1.87;;;1.37;;
10884;SDS011;5495;53.252;10.390;2022-10-16T08:49:14;2.23;;;1.50;;
10884;SDS011;5495;53.252;10.390;2022-10-16T08:51:54;4.70;;;1.87;;
10884;SDS011;5495;53.252;10.390;2022-10-16T08:54:28;3.17;;;1.90;;
10884;SDS011;5495;53.252;10.390;2022-10-16T08:57:16;2.10;;;1.57;;
10884;SDS011;5495;53.252;10.390;2022-10-16T09:00:05;4.93;;;1.40;;
10884;SDS011;5495;53.252;10.390;2022-10-16T09:02:45;6.13;;;1.40;;
10884;SDS011;5495;53.252;10.390;2022-10-16T09:05:54;4.30;;;1.70;;
10884;SDS011;5495;53.252;10.390;2022-10-16T09:09:07;6.23;;;1.80;;
10884;SDS011;5495;53.252;10.390;2022-10-16T09:12:00;4.70;;;1.87;;
10884;SDS011;5495;53.252;10.390;2022-10-16T09:14:39;5.33;;;1.47;;
10884;SDS011;5495;53.252;10.390;2022-10-16T09:17:44;2.43;;;1.40;;
10884;SDS011;5495;53.252;10.390;2022-10-16T09:20:25;3.20;;;1.30;;
10884;SDS011;5495;53.252;10.390;2022-10-16T09:23:16;4.43;;;1.27;;
10884;SDS011;5495;53.252;10.390;2022-10-16T09:26:00;4.90;;;1.53;;
10884;SDS011;5495;53.252;10.390;2022-10-16T09:28:45;2.80;;;1.30;;
10884;SDS011;5495;53.252;10.390;2022-10-16T09:31:25;4.50;;;1.20;;
10884;SDS011;5495;53.252;10.390;2022-10-16T09:33:53;3.93;;;1.30;;
10884;SDS011;5495;53.252;10.390;2022-10-16T09:36:45;3.30;;;1.30;;
10884;SDS011;5495;53.252;10.390;2022-10-16T09:39:21;4.43;;;1.40;;
10884;SDS011;5495;53.252;10.390;2022-10-16T09:41:54;4.47;;;1.20;;
10884;SDS011;5495;53.252;10.390;2022-10-16T09:44:28;4.23;;;1.50;;
10884;SDS011;5495;53.252;10.390;2022-10-16T09:47:03;2.00;;;1.30;;
10884;SDS011;5495;53.252;10.390;2022-10-16T09:49:49;3.60;;;1.17;;
10884;SDS011;5495;53.252;10.390;2022-10-16T09:52:24;4.00;;;1.43;;
10884;SDS011;5495;53.252;10.390;2022-10-16T09:54:58;6.13;;;1.27;;
10884;SDS011;5495;53.252;10.390;2022-10-16T09:57:33;3.70;;;1.03;;
10884;SDS011;5495;53.252;10.390;2022-10-16T10:00:29;6.60;;;1.30;;
10884;SDS011;5495;53.252;10.390;2022-10-16T10:03:13;1.23;;;1.00;;
10884;SDS011;5495;53.252;10.390;2022-10-16T10:06:24;4.67;;;1.30;;
10884;SDS011;5495;53.252;10.390;2022-10-16T10:09:15;2.80;;;1.10;;
10884;SDS011;5495;53.252;10.390;2022-10-16T10:11:47;3.87;;;1.00;;
10884;SDS011;5495;53.252;10.390;2022-10-16T10:14:26;3.00;;;1.10;;
10884;SDS011;5495;53.252;10.390;2022-10-16T10:17:07;2.30;;;1.20;;
10884;SDS011;5495;53.252;10.390;2022-10-16T10:20:00;3.73;;;1.40;;
10884;SDS011;5495;53.252;10.390;2022-10-16T10:22:42;3.00;;;1.43;;
10884;SDS011;5495;53.252;10.390;2022-10-16T10:28:18;3.00;;;1.00;;
10884;SDS011;5495;53.252;10.390;2022-10-16T10:31:19;2.07;;;1.07;;
10884;SDS011;5495;53.252;10.390;2022-10-16T10:37:29;5.50;;;1.67;;
10884;SDS011;5495;53.252;10.390;2022-10-16T10:40:41;0.83;;;0.70;;
10884;SDS011;5495;53.252;10.390;2022-10-16T10:43:31;7.27;;;1.00;;
10884;SDS011;5495;53.252;10.390;2022-10-16T10:46:42;2.17;;;1.13;;
10884;SDS011;5495;53.252;10.390;2022-10-16T10:50:10;2.57;;;1.10;;
10884;SDS011;5495;53.252;10.390;2022-10-16T10:53:30;5.17;;;1.03;;
10884;SDS011;5495;53.252;10.390;2022-10-16T10:56:23;4.77;;;1.00;;
10884;SDS011;5495;53.252;10.390;2022-10-16T10:59:25;3.40;;;0.90;;
10884;SDS011;5495;53.252;10.390;2022-10-16T11:02:29;2.80;;;1.00;;
10884;SDS011;5495;53.252;10.390;2022-10-16T11:05:24;5.20;;;1.27;;
10884;SDS011;5495;53.252;10.390;2022-10-16T11:08:18;3.63;;;0.93;;
10884;SDS011;5495;53.252;10.390;2022-10-16T11:10:53;2.67;;;1.00;;
10884;SDS011;5495;53.252;10.390;2022-10-16T11:13:44;1.57;;;0.93;;
10884;SDS011;5495;53.252;10.390;2022-10-16T11:16:39;2.47;;;0.80;;
10884;SDS011;5495;53.252;10.390;2022-10-16T11:19:19;3.57;;;1.20;;
10884;SDS011;5495;53.252;10.390;2022-10-16T11:22:24;4.33;;;0.93;;
10884;SDS011;5495;53.252;10.390;2022-10-16T11:25:02;3.60;;;0.90;;
10884;SDS011;5495;53.252;10.390;2022-10-16T11:27:43;3.03;;;1.10;;
10884;SDS011;5495;53.252;10.390;2022-10-16T11:30:25;3.83;;;0.83;;
10884;SDS011;5495;53.252;10.390;2022-10-16T11:33:15;3.73;;;1.10;;
10884;SDS011;5495;53.252;10.390;2022-10-16T11:42:25;2.17;;;1.00;;
10884;SDS011;5495;53.252;10.390;2022-10-16T11:45:22;3.50;;;1.23;;
10884;SDS011;5495;53.252;10.390;2022-10-16T11:48:17;3.60;;;1.00;;
10884;SDS011;5495;53.252;10.390;2022-10-16T11:52:25;5.03;;;0.93;;
10884;SDS011;5495;53.252;10.390;2022-10-16T11:54:40;4.57;;;1.63;;
10884;SDS011;5495;53.252;10.390;2022-10-16T11:57:28;4.37;;;2.13;;
10884;SDS011;5495;53.252;10.390;2022-10-16T12:00:20;6.03;;;1.77;;
10884;SDS011;5495;53.252;10.390;2022-10-16T12:02:55;6.80;;;1.30;;
10884;SDS011;5495;53.252;10.390;2022-10-16T12:05:35;7.23;;;2.07;;
10884;SDS011;5495;53.252;10.390;2022-10-16T12:08:38;5.43;;;1.30;;
10884;SDS011;5495;53.252;10.390;2022-10-16T12:11:23;9.50;;;1.60;;
10884;SDS011;5495;53.252;10.390;2022-10-16T12:17:24;3.30;;;1.23;;
10884;SDS011;5495;53.252;10.390;2022-10-16T12:20:26;2.27;;;1.37;;
10884;SDS011;5495;53.252;10.390;2022-10-16T12:23:16;5.50;;;1.30;;
10884;SDS011;5495;53.252;10.390;2022-10-16T12:25:56;2.07;;;1.10;;
10884;SDS011;5495;53.252;10.390;2022-10-16T12:28:28;2.90;;;1.20;;
10884;SDS011;5495;53.252;10.390;2022-10-16T12:30:58;4.53;;;1.13;;
10884;SDS011;5495;53.252;10.390;2022-10-16T12:34:04;3.20;;;1.20;;
10884;SDS011;5495;53.252;10.390;2022-10-16T12:36:31;8.30;;;1.40;;
10884;SDS011;5495;53.252;10.390;2022-10-16T12:39:19;5.23;;;1.20;;
10884;SDS011;5495;53.252;10.390;2022-10-16T12:45:21;1.20;;;0.93;;
10884;SDS011;5495;53.252;10.390;2022-10-16T12:48:18;3.57;;;1.00;;
10884;SDS011;5495;53.252;10.390;2022-10-16T12:50:54;5.77;;;1.20;;
10884;SDS011;5495;53.252;10.390;2022-10-16T12:53:25;5.67;;;1.23;;
10884;SDS011;5495;53.252;10.390;2022-10-16T12:59:11;4.50;;;1.10;;
10884;SDS011;5495;53.252;10.390;2022-10-16T13:01:55;2.90;;;1.07;;
10884;SDS011;5495;53.252;10.390;2022-10-16T13:05:17;3.17;;;1.20;;
10884;SDS011;5495;53.252;10.390;2022-10-16T13:07:59;3.50;;;0.97;;
10884;SDS011;5495;53.252;10.390;2022-10-16T13:10:56;2.50;;;1.17;;
10884;SDS011;5495;53.252;10.390;2022-10-16T13:13:38;3.33;;;1.13;;
10884;SDS011;5495;53.252;10.390;2022-10-16T13:16:39;3.87;;;1.10;;
10884;SDS011;5495;53.252;10.390;2022-10-16T13:19:29;5.83;;;1.30;;
10884;SDS011;5495;53.252;10.390;2022-10-16T13:22:11;4.83;;;1.30;;
10884;SDS011;5495;53.252;10.390;2022-10-16T13:24:48;3.00;;;1.13;;
10884;SDS011;5495;53.252;10.390;2022-10-16T13:27:39;4.27;;;1.30;;
10884;SDS011;5495;53.252;10.390;2022-10-16T13:30:13;5.67;;;1.20;;
10884;SDS011;5495;53.252;10.390;2022-10-16T13:32:52;7.57;;;1.17;;
10884;SDS011;5495;53.252;10.390;2022-10-16T13:35:28;5.47;;;1.07;;
10884;SDS011;5495;53.252;10.390;2022-10-16T13:38:09;2.23;;;0.90;;
10884;SDS011;5495;53.252;10.390;2022-10-16T13:40:54;4.53;;;1.10;;
10884;SDS011;5495;53.252;10.390;2022-10-16T13:43:24;1.83;;;0.90;;
10884;SDS011;5495;53.252;10.390;2022-10-16T13:45:56;1.90;;;1.17;;
10884;SDS011;5495;53.252;10.390;2022-10-16T13:48:26;4.33;;;1.17;;
10884;SDS011;5495;53.252;10.390;2022-10-16T13:51:01;2.90;;;1.13;;
10884;SDS011;5495;53.252;10.390;2022-10-16T13:53:57;15.57;;;1.50;;
10884;SDS011;5495;53.252;10.390;2022-10-16T13:56:45;3.63;;;1.10;;
10884;SDS011;5495;53.252;10.390;2022-10-16T13:59:25;4.33;;;1.30;;
10884;SDS011;5495;53.252;10.390;2022-10-16T14:02:01;3.63;;;1.03;;
10884;SDS011;5495;53.252;10.390;2022-10-16T14:04:48;5.60;;;1.37;;
10884;SDS011;5495;53.252;10.390;2022-10-16T14:07:23;4.40;;;1.07;;
10884;SDS011;5495;53.252;10.390;2022-10-16T14:10:01;1.87;;;0.90;;
10884;SDS011;5495;53.252;10.390;2022-10-16T14:12:34;7.83;;;1.47;;
10884;SDS011;5495;53.252;10.390;2022-10-16T14:15:22;4.07;;;1.13;;
10884;SDS011;5495;53.252;10.390;2022-10-16T14:18:04;6.43;;;1.37;;
10884;SDS011;5495;53.252;10.390;2022-10-16T14:20:50;4.63;;;1.33;;
10884;SDS011;5495;53.252;10.390;2022-10-16T14:23:29;4.77;;;1.00;;
10884;SDS011;5495;53.252;10.390;2022-10-16T14:26:16;3.90;;;1.03;;
10884;SDS011;5495;53.252;10.390;2022-10-16T14:28:48;7.73;;;1.47;;
10884;SDS011;5495;53.252;10.390;2022-10-16T14:31:37;4.13;;;1.20;;
10884;SDS011;5495;53.252;10.390;2022-10-16T14:34:35;4.70;;;1.20;;
10884;SDS011;5495;53.252;10.390;2022-10-16T14:37:09;8.40;;;1.30;;
10884;SDS011;5495;53.252;10.390;2022-10-16T14:39:50;4.90;;;1.20;;
10884;SDS011;5495;53.252;10.390;2022-10-16T14:42:20;4.90;;;1.10;;
10884;SDS011;5495;53.252;10.390;2022-10-16T14:45:07;5.23;;;1.37;;
10884;SDS011;5495;53.252;10.390;2022-10-16T14:47:54;7.03;;;1.23;;
10884;SDS011;5495;53.252;10.390;2022-10-16T14:50:48;7.27;;;1.33;;
10884;SDS011;5495;53.252;10.390;2022-10-16T14:56:18;6.87;;;1.57;;
10884;SDS011;5495;53.252;10.390;2022-10-16T14:59:00;3.93;;;1.70;;
10884;SDS011;5495;53.252;10.390;2022-10-16T15:01:41;3.77;;;1.10;;
10884;SDS011;5495;53.252;10.390;2022-10-16T15:04:15;5.90;;;1.30;;
10884;SDS011;5495;53.252;10.390;2022-10-16T15:06:49;6.13;;;1.00;;
10884;SDS011;5495;53.252;10.390;2022-10-16T15:12:20;8.40;;;1.67;;
10884;SDS011;5495;53.252;10.390;2022-10-16T15:14:59;6.07;;;1.30;;
10884;SDS011;5495;53.252;10.390;2022-10-16T15:17:51;9.87;;;1.50;;
10884;SDS011;5495;53.252;10.390;2022-10-16T15:20:36;6.97;;;1.53;;
10884;SDS011;5495;53.252;10.390;2022-10-16T15:23:16;13.10;;;1.60;;
10884;SDS011;5495;53.252;10.390;2022-10-16T15:25:51;3.37;;;1.03;;
10884;SDS011;5495;53.252;10.390;2022-10-16T15:28:28;7.13;;;1.20;;
10884;SDS011;5495;53.252;10.390;2022-10-16T15:31:06;6.57;;;1.10;;
10884;SDS011;5495;53.252;10.390;2022-10-16T15:33:59;5.17;;;1.07;;
10884;SDS011;5495;53.252;10.390;2022-10-16T15:37:06;5.47;;;1.13;;
10884;SDS011;5495;53.252;10.390;2022-10-16T15:39:51;13.27;;;1.50;;
10884;SDS011;5495;53.252;10.390;2022-10-16T15:42:32;9.03;;;1.30;;
10884;SDS011;5495;53.252;10.390;2022-10-16T15:45:07;8.60;;;1.20;;
10884;SDS011;5495;53.252;10.390;2022-10-16T15:47:44;5.37;;;1.30;;
10884;SDS011;5495;53.252;10.390;2022-10-16T15:50:19;4.23;;;1.67;;
10884;SDS011;5495;53.252;10.390;2022-10-16T15:56:51;4.37;;;1.30;;
10884;SDS011;5495;53.252;10.390;2022-10-16T16:06:02;7.40;;;1.23;;
10884;SDS011;5495;53.252;10.390;2022-10-16T16:09:17;3.87;;;1.10;;
10884;SDS011;5495;53.252;10.390;2022-10-16T16:25:16;4.83;;;1.00;;
10884;SDS011;5495;53.252;10.390;2022-10-16T16:28:21;5.30;;;1.33;;
10884;SDS011;5495;53.252;10.390;2022-10-16T16:31:06;7.60;;;1.20;;
10884;SDS011;5495;53.252;10.390;2022-10-16T16:34:15;6.90;;;1.20;;
10884;SDS011;5495;53.252;10.390;2022-10-16T16:37:08;6.93;;;1.40;;
10884;SDS011;5495;53.252;10.390;2022-10-16T16:42:59;6.93;;;1.40;;
10884;SDS011;5495;53.252;10.390;2022-10-16T16:45:48;5.60;;;1.37;;
10884;SDS011;5495;53.252;10.390;2022-10-16T16:48:36;5.97;;;1.53;;
10884;SDS011;5495;53.252;10.390;2022-10-16T16:51:21;6.03;;;1.50;;
10884;SDS011;5495;53.252;10.390;2022-10-16T16:54:20;8.53;;;1.50;;
10884;SDS011;5495;53.252;10.390;2022-10-16T16:57:21;11.60;;;2.07;;
10884;SDS011;5495;53.252;10.390;2022-10-16T17:06:39;5.90;;;1.70;;
10884;SDS011;5495;53.252;10.390;2022-10-16T17:14:48;6.90;;;1.60;;
10884;SDS011;5495;53.252;10.390;2022-10-16T17:20:15;4.33;;;1.67;;
10884;SDS011;5495;53.252;10.390;2022-10-16T17:22:46;11.47;;;2.03;;
10884;SDS011;5495;53.252;10.390;2022-10-16T17:25:19;3.17;;;1.43;;
10884;SDS011;5495;53.252;10.390;2022-10-16T17:34:16;11.80;;;1.83;;
10884;SDS011;5495;53.252;10.390;2022-10-16T17:39:56;6.80;;;1.40;;
10884;SDS011;5495;53.252;10.390;2022-10-16T17:42:26;8.90;;;2.00;;
10884;SDS011;5495;53.252;10.390;2022-10-16T17:45:07;7.50;;;1.70;;
10884;SDS011;5495;53.252;10.390;2022-10-16T17:47:45;7.67;;;1.70;;
10884;SDS011;5495;53.252;10.390;2022-10-16T17:50:17;3.87;;;1.83;;
10884;SDS011;5495;53.252;10.390;2022-10-16T17:52:48;6.07;;;2.10;;
10884;SDS011;5495;53.252;10.390;2022-10-16T17:55:24;7.07;;;2.37;;
10884;SDS011;5495;53.252;10.390;2022-10-16T18:01:16;11.83;;;1.90;;
10884;SDS011;5495;53.252;10.390;2022-10-16T18:03:51;6.70;;;1.80;;
10884;SDS011;5495;53.252;10.390;2022-10-16T18:06:25;11.20;;;2.30;;
10884;SDS011;5495;53.252;10.390;2022-10-16T18:09:19;9.80;;;2.37;;
10884;SDS011;5495;53.252;10.390;2022-10-16T18:11:51;9.40;;;2.10;;
10884;SDS011;5495;53.252;10.390;2022-10-16T18:14:24;9.60;;;2.10;;
10884;SDS011;5495;53.252;10.390;2022-10-16T18:17:10;9.60;;;1.97;;
10884;SDS011;5495;53.252;10.390;2022-10-16T18:19:45;7.33;;;1.90;;
10884;SDS011;5495;53.252;10.390;2022-10-16T18:22:19;10.20;;;2.23;;
10884;SDS011;5495;53.252;10.390;2022-10-16T18:24:59;4.27;;;1.67;;
10884;SDS011;5495;53.252;10.390;2022-10-16T18:30:43;11.57;;;1.70;;
10884;SDS011;5495;53.252;10.390;2022-10-16T18:33:19;5.23;;;2.00;;
10884;SDS011;5495;53.252;10.390;2022-10-16T18:35:50;7.90;;;2.80;;
10884;SDS011;5495;53.252;10.390;2022-10-16T18:38:24;7.73;;;3.00;;
10884;SDS011;5495;53.252;10.390;2022-10-16T18:40:53;6.07;;;2.60;;